Main page
METAR-TAF:

METAR-TAF

Airports :

Murcia, Spain

Base Aérea de Alcantarilla

latitude: 37-57N, longitude: 001-14W, elevation: 75 m

Current weather observation

The report was made 1 hour and 19 minutes ago, at 06:00 UTC
Wind 2 kt from the West/Northwest
Temperature 3°C
Humidity 93%
Pressure 1018 hPa
Visibility 10 km or more
no clouds below 1500 m and no cumulonimbus

METAR: LERI 220600Z 30002KT CAVOK 03/02 Q1018 NOSIG

Time: 08:19 (07:19 UTC)

Forecast

The report was made 2 hours and 19 minutes ago, at 05:00 UTC
Forecast valid from 22 at 06 UTC to 22 at 15 UTC
Wind 2 kt from the Southwest
Visibility 10 km or more
no clouds below 1500 m and no cumulonimbus

TAF: LERI 220500Z 2206/2215 22002KT CAVOK

Weather observations and forecasts of more than 4000 airports (METAR and TAF reports).

The available stations are represented by yellow and red dots on the map.

Hover mouse over dot to see the name of the station.

Then click to see weather observations and forecasts.

To change the map : click on the green buttons with a black cross to zoom in, on the green button with a dash to zoom out, or on the green arrows for adjacent maps.


METAR-TAF: